Time;durP1;ratioP1;P1;durP2;ratioP2;P2;SDS_P1;SDS_P2;PMS_P1;PMS_P2;Temp;Humidity;BMP_temperature;BMP_pressure;BME280_temperature;BME280_humidity;BME280_pressure;Samples;Min_cycle;Max_cycle;Signal;HPM_P1;HPM_P2
2023/01/11 00:00:18;;;;;;;1.70;1.60;;;17.80;70.90;;;;;;5071562;28;20044;-26
2023/01/11 00:02:44;;;;;;;1.52;1.42;;;17.80;71.20;;;;;;5076653;28;20032;-11
2023/01/11 00:05:10;;;;;;;2.28;1.42;;;17.80;70.90;;;;;;5072140;28;20055;-18
2023/01/11 00:07:36;;;;;;;1.50;1.40;;;18.00;70.60;;;;;;5076659;28;20040;-20
2023/01/11 00:10:03;;;;;;;1.30;1.20;;;18.00;70.40;;;;;;5072177;28;20400;-11
2023/01/11 00:12:29;;;;;;;1.23;1.23;;;18.00;70.60;;;;;;5072105;28;20024;-12
2023/01/11 00:14:55;;;;;;;1.40;1.30;;;17.90;70.60;;;;;;5077056;28;20085;-21
2023/01/11 00:17:21;;;;;;;1.58;1.48;;;17.90;70.70;;;;;;5078138;28;20036;-11
2023/01/11 00:19:46;;;;;;;1.15;1.15;;;17.90;70.70;;;;;;5066056;28;20505;-12
2023/01/11 00:22:12;;;;;;;1.08;1.08;;;18.00;70.50;;;;;;5073445;28;20497;-11
2023/01/11 00:24:37;;;;;;;2.97;1.00;;;18.00;70.20;;;;;;5076782;28;20040;-20
2023/01/11 00:27:03;;;;;;;1.50;1.40;;;17.90;70.50;;;;;;5074654;28;20536;-11
2023/01/11 00:29:28;;;;;;;0.93;0.93;;;17.90;70.40;;;;;;5075079;28;20043;-11
2023/01/11 00:31:54;;;;;;;1.30;1.20;;;17.90;70.60;;;;;;5075413;28;20058;-24
2023/01/11 00:34:20;;;;;;;1.00;1.00;;;18.00;70.30;;;;;;5075133;28;20100;-11
2023/01/11 00:36:45;;;;;;;1.10;1.10;;;17.90;70.40;;;;;;5071157;28;20045;-14
2023/01/11 00:39:11;;;;;;;1.15;1.08;;;18.00;70.40;;;;;;5076384;28;20035;-18
2023/01/11 00:49:50;;;;;;;0.93;0.93;;;18.00;70.20;;;;;;5068152;28;20133;-15
2023/01/11 00:52:16;;;;;;;1.20;1.10;;;18.00;70.20;;;;;;5074415;28;20074;-11
2023/01/11 00:54:42;;;;;;;1.05;1.05;;;17.90;70.20;;;;;;5077984;28;20044;-11
2023/01/11 00:57:07;;;;;;;1.05;1.00;;;17.70;70.80;;;;;;5074882;28;20998;-34
2023/01/11 00:59:34;;;;;;;0.82;0.82;;;17.80;70.70;;;;;;5071705;28;20046;-19
2023/01/11 01:02:02;;;;;;;0.70;0.70;;;17.80;70.80;;;;;;5070595;28;20068;-11
2023/01/11 01:04:28;;;;;;;0.80;0.80;;;17.80;70.50;;;;;;5075750;28;20048;-38
2023/01/11 01:06:54;;;;;;;1.90;0.75;;;17.90;70.30;;;;;;5068655;28;20110;-11
2023/01/11 01:09:19;;;;;;;0.60;0.60;;;17.80;70.40;;;;;;5076308;28;20519;-12
2023/01/11 01:11:45;;;;;;;0.68;0.68;;;17.90;70.50;;;;;;5075927;28;20032;-23
2023/01/11 01:14:27;;;;;;;0.75;0.75;;;17.80;70.70;;;;;;5072935;28;20044;-20
2023/01/11 01:16:57;;;;;;;0.70;0.70;;;17.70;70.90;;;;;;5067717;28;20058;-11
2023/01/11 01:19:23;;;;;;;0.95;0.70;;;17.80;70.60;;;;;;5071308;28;20055;-11
2023/01/11 01:21:49;;;;;;;0.70;0.70;;;17.80;70.70;;;;;;5070443;28;20048;-12
2023/01/11 01:24:14;;;;;;;0.80;0.80;;;17.80;70.50;;;;;;5059900;28;20143;-16
2023/01/11 01:26:40;;;;;;;0.80;0.80;;;17.80;70.60;;;;;;5049717;28;20409;-32
2023/01/11 01:29:06;;;;;;;0.60;0.60;;;17.80;70.50;;;;;;5044654;28;20059;-15
2023/01/11 01:31:31;;;;;;;0.80;0.80;;;17.80;70.50;;;;;;5042880;28;20057;-11
2023/01/11 01:33:57;;;;;;;0.90;0.68;;;17.70;70.50;;;;;;5042379;28;20048;-11
2023/01/11 01:36:23;;;;;;;0.75;0.70;;;17.80;70.60;;;;;;5049848;28;20047;-19
2023/01/11 01:38:48;;;;;;;0.80;0.80;;;17.70;70.70;;;;;;5076688;28;20581;-13
2023/01/11 01:41:14;;;;;;;0.77;0.77;;;17.70;70.90;;;;;;5080655;28;20047;-16
2023/01/11 01:43:44;;;;;;;0.70;0.50;;;17.80;70.50;;;;;;5077253;28;20058;-11
2023/01/11 01:46:09;;;;;;;0.57;0.57;;;17.80;70.40;;;;;;5070514;28;20044;-19
2023/01/11 01:48:35;;;;;;;0.60;0.60;;;17.90;70.20;;;;;;5078337;28;20093;-11
2023/01/11 01:51:01;;;;;;;0.68;0.68;;;17.80;70.30;;;;;;5056553;28;20040;-18
2023/01/11 01:53:38;;;;;;;0.68;0.68;;;17.80;70.40;;;;;;5071386;28;20501;-40
2023/01/11 01:56:15;;;;;;;0.70;0.70;;;17.60;70.90;;;;;;5052688;28;20045;-17
2023/01/11 01:58:44;;;;;;;0.70;0.70;;;17.60;71.10;;;;;;5077860;28;20081;-11
2023/01/11 02:03:59;;;;;;;0.47;0.47;;;17.50;71.40;;;;;;5075076;28;20471;-11
2023/01/11 02:06:24;;;;;;;0.57;0.50;;;17.60;70.90;;;;;;5071606;28;20052;-18
2023/01/11 02:08:55;;;;;;;0.47;0.47;;;17.60;70.90;;;;;;5051027;28;20075;-10
2023/01/11 02:11:30;;;;;;;0.47;0.47;;;17.60;70.90;;;;;;5056177;28;20097;-18
2023/01/11 02:14:00;;;;;;;0.57;0.57;;;17.60;70.90;;;;;;5072058;28;20528;-10
2023/01/11 02:16:25;;;;;;;0.85;0.63;;;17.60;70.90;;;;;;5060847;28;20039;-10
2023/01/11 02:18:51;;;;;;;0.50;0.50;;;17.60;71.00;;;;;;5078063;28;20047;-10
2023/01/11 02:21:22;;;;;;;0.60;0.60;;;17.60;71.10;;;;;;5074107;28;20460;-11
2023/01/11 02:24:08;;;;;;;0.50;0.50;;;17.50;71.20;;;;;;5060678;28;20044;-14
2023/01/11 02:26:58;;;;;;;0.50;0.50;;;17.60;71.10;;;;;;5052269;28;20041;-10
2023/01/11 02:29:35;;;;;;;0.40;0.40;;;17.70;70.70;;;;;;5073244;28;20045;-10
2023/01/11 02:32:19;;;;;;;0.60;0.60;;;17.60;70.90;;;;;;5070819;28;20122;-9
2023/01/11 02:35:09;;;;;;;0.50;0.50;;;17.70;70.70;;;;;;5070583;28;20055;-17
2023/01/11 02:37:50;;;;;;;0.40;0.30;;;17.70;70.80;;;;;;5049338;28;20043;-10
2023/01/11 02:40:36;;;;;;;0.70;0.60;;;17.70;70.70;;;;;;5036640;28;20071;-10
2023/01/11 02:46:23;;;;;;;0.30;0.30;;;17.70;70.70;;;;;;5077641;28;20186;-11
2023/01/11 02:48:58;;;;;;;0.50;0.50;;;17.60;70.70;;;;;;5050679;28;20512;-10
2023/01/11 02:51:53;;;;;;;0.50;0.50;;;17.60;70.80;;;;;;5052179;28;20075;-10
2023/01/11 02:54:19;;;;;;;0.50;0.40;;;17.70;70.80;;;;;;5052932;28;20631;-10
2023/01/11 02:56:46;;;;;;;0.57;0.45;;;17.60;71.10;;;;;;5067348;28;20111;-11
2023/01/11 02:59:14;;;;;;;0.50;0.50;;;17.60;70.80;;;;;;5085652;28;20044;-9
2023/01/11 03:01:47;;;;;;;0.82;0.50;;;17.70;70.90;;;;;;5064916;28;20036;-25
2023/01/11 03:04:32;;;;;;;1.00;0.60;;;17.60;70.90;;;;;;5075335;28;20086;-10
2023/01/11 03:07:33;;;;;;;0.40;0.40;;;17.70;70.90;;;;;;5072839;28;21118;-21
2023/01/11 03:10:17;;;;;;;0.70;0.60;;;17.60;70.80;;;;;;5075016;28;20437;-11
2023/01/11 03:13:13;;;;;;;0.70;0.70;;;17.60;71.20;;;;;;5079913;28;20044;-9
2023/01/11 03:15:52;;;;;;;3.03;0.60;;;17.60;71.20;;;;;;5079878;28;20043;-10
2023/01/11 03:18:25;;;;;;;0.85;0.45;;;17.60;71.20;;;;;;5069161;28;20028;-10
2023/01/11 03:21:01;;;;;;;0.55;0.55;;;17.60;71.10;;;;;;5080294;28;20449;-10
2023/01/11 03:23:33;;;;;;;0.50;0.50;;;17.60;71.10;;;;;;5080433;28;20139;-17
2023/01/11 03:25:58;;;;;;;0.55;0.55;;;17.70;70.90;;;;;;5055484;28;20036;-14
2023/01/11 03:28:35;;;;;;;0.77;0.70;;;17.70;70.80;;;;;;5079340;28;20513;-14
2023/01/11 03:31:18;;;;;;;0.52;0.52;;;17.70;70.80;;;;;;5082102;28;20039;-10
2023/01/11 03:33:55;;;;;;;0.50;0.40;;;17.60;70.90;;;;;;5066632;28;20117;-11
2023/01/11 03:36:26;;;;;;;0.47;0.43;;;17.70;70.80;;;;;;5077014;28;20036;-10
2023/01/11 03:39:21;;;;;;;0.40;0.40;;;17.60;71.70;;;;;;5050523;28;20035;-13
2023/01/11 03:41:47;;;;;;;0.60;0.52;;;17.60;71.00;;;;;;5067216;28;20043;-10
2023/01/11 03:44:13;;;;;;;0.52;0.50;;;17.60;71.00;;;;;;5070183;28;20045;-19
2023/01/11 03:46:50;;;;;;;0.50;0.50;;;17.60;70.80;;;;;;5065345;28;20416;-14
2023/01/11 03:49:26;;;;;;;0.50;0.50;;;17.70;70.80;;;;;;5065460;28;20589;-11
2023/01/11 03:51:52;;;;;;;0.45;0.45;;;17.70;70.90;;;;;;5063777;28;20181;-11
2023/01/11 03:54:22;;;;;;;0.35;0.35;;;17.60;70.90;;;;;;5066911;28;21128;-10
2023/01/11 03:57:27;;;;;;;0.22;0.20;;;17.70;70.70;;;;;;5080900;28;20047;-10
2023/01/11 03:59:53;;;;;;;0.60;0.60;;;17.60;70.70;;;;;;5071374;28;20037;-16
2023/01/11 04:02:23;;;;;;;0.65;0.40;;;17.50;71.00;;;;;;5068514;28;20052;-10
2023/01/11 04:04:49;;;;;;;0.40;0.40;;;17.50;71.50;;;;;;5069573;28;20044;-11
2023/01/11 04:07:15;;;;;;;0.40;0.40;;;17.50;71.50;;;;;;5074145;28;20513;-14
2023/01/11 04:09:41;;;;;;;1.17;0.68;;;17.60;71.20;;;;;;5072044;28;20036;-11
2023/01/11 04:12:06;;;;;;;0.43;0.40;;;17.40;71.60;;;;;;5067344;28;20059;-12
2023/01/11 04:14:32;;;;;;;0.38;0.38;;;17.40;71.70;;;;;;5075912;28;20386;-9
2023/01/11 04:16:58;;;;;;;0.47;0.47;;;17.40;71.90;;;;;;5069158;28;20055;-11
2023/01/11 04:19:23;;;;;;;0.50;0.50;;;17.40;71.90;;;;;;5072037;28;20051;-10
2023/01/11 04:21:49;;;;;;;0.30;0.30;;;17.40;71.60;;;;;;5077149;28;20501;-17
2023/01/11 04:24:14;;;;;;;0.40;0.40;;;17.50;71.70;;;;;;5071555;28;20084;-9
2023/01/11 04:26:40;;;;;;;0.40;0.40;;;17.50;71.60;;;;;;5071186;28;20032;-13
2023/01/11 04:29:05;;;;;;;0.50;0.43;;;17.40;71.60;;;;;;5074057;28;20060;-11
2023/01/11 04:31:31;;;;;;;0.50;0.50;;;17.30;71.80;;;;;;5075613;28;20516;-10
2023/01/11 04:33:57;;;;;;;0.43;0.40;;;17.40;71.90;;;;;;5079471;28;20048;-18
2023/01/11 04:36:23;;;;;;;0.52;0.52;;;17.40;71.70;;;;;;5074864;28;20478;-13
2023/01/11 04:38:48;;;;;;;1.50;0.55;;;17.40;71.60;;;;;;5073221;28;20127;-9
2023/01/11 04:43:58;;;;;;;0.43;0.43;;;17.40;71.80;;;;;;5069086;28;20098;-9
2023/01/11 04:46:24;;;;;;;0.45;0.45;;;17.40;71.80;;;;;;5049095;28;20461;-10
2023/01/11 04:48:49;;;;;;;0.73;0.50;;;17.40;71.80;;;;;;5045830;28;20129;-10
2023/01/11 04:51:15;;;;;;;0.50;0.50;;;17.50;71.60;;;;;;5042743;28;20033;-14
2023/01/11 04:53:41;;;;;;;0.70;0.70;;;17.40;71.50;;;;;;5044725;28;20045;-14
2023/01/11 04:56:06;;;;;;;0.40;0.40;;;17.50;71.50;;;;;;5045811;28;20084;-10
2023/01/11 04:58:33;;;;;;;0.55;0.55;;;17.40;71.50;;;;;;5049791;28;20502;-14
2023/01/11 05:00:59;;;;;;;0.47;0.45;;;17.40;71.90;;;;;;5049311;28;20045;-10
2023/01/11 05:03:24;;;;;;;0.40;0.40;;;17.30;72.00;;;;;;5049944;28;20175;-9
2023/01/11 05:05:57;;;;;;;0.88;0.60;;;17.30;72.10;;;;;;5049310;28;20571;-14
2023/01/11 05:08:23;;;;;;;1.15;0.52;;;17.30;72.10;;;;;;5049893;28;20037;-10
2023/01/11 05:10:56;;;;;;;0.63;0.50;;;17.30;72.10;;;;;;5049050;28;20057;-9
2023/01/11 05:13:40;;;;;;;0.60;0.60;;;17.40;71.90;;;;;;5050102;28;20044;-16
2023/01/11 05:16:24;;;;;;;0.40;0.40;;;17.40;71.90;;;;;;5048771;28;20045;-18
2023/01/11 05:18:53;;;;;;;1.95;0.50;;;17.40;71.80;;;;;;5048426;28;20071;-10
2023/01/11 05:21:20;;;;;;;0.40;0.32;;;17.30;71.90;;;;;;5049992;28;20045;-9
2023/01/11 05:23:46;;;;;;;0.40;0.40;;;17.30;71.90;;;;;;5049807;28;20110;-13
2023/01/11 05:26:17;;;;;;;0.50;0.40;;;17.30;72.10;;;;;;5048411;28;20530;-18
2023/01/11 05:28:43;;;;;;;0.40;0.40;;;17.30;72.10;;;;;;5046931;28;20175;-13
2023/01/11 05:31:09;;;;;;;0.30;0.30;;;17.20;72.10;;;;;;5048592;28;20045;-10
2023/01/11 05:33:34;;;;;;;0.60;0.50;;;17.30;72.10;;;;;;5049303;28;20037;-13
2023/01/11 05:36:01;;;;;;;0.77;0.43;;;17.20;72.20;;;;;;5048242;28;20053;-15
2023/01/11 05:38:27;;;;;;;0.45;0.45;;;17.20;72.10;;;;;;5049139;28;20041;-26
2023/01/11 05:41:00;;;;;;;0.43;0.30;;;17.20;72.10;;;;;;5049418;28;20048;-9
2023/01/11 05:43:26;;;;;;;1.08;0.60;;;17.20;72.20;;;;;;5048629;28;20076;-9
2023/01/11 05:45:51;;;;;;;0.73;0.45;;;17.30;72.00;;;;;;5065556;28;20130;-11
2023/01/11 05:48:17;;;;;;;0.50;0.47;;;17.30;71.90;;;;;;5066753;28;20127;-25
2023/01/11 05:50:43;;;;;;;0.60;0.50;;;17.30;72.10;;;;;;5068826;28;20544;-9
2023/01/11 05:53:09;;;;;;;0.43;0.40;;;17.30;72.50;;;;;;5067683;28;20509;-14
2023/01/11 05:55:35;;;;;;;0.30;0.30;;;17.40;72.20;;;;;;5069329;28;20040;-15
2023/01/11 05:58:00;;;;;;;0.43;0.40;;;17.30;72.10;;;;;;5070201;28;20033;-9
2023/01/11 06:00:26;;;;;;;1.60;0.75;;;17.30;72.50;;;;;;5068642;28;20068;-10
2023/01/11 06:02:51;;;;;;;1.42;0.68;;;17.40;72.50;;;;;;5070147;28;20044;-16
2023/01/11 06:05:17;;;;;;;1.45;0.55;;;17.30;72.40;;;;;;5078043;28;20051;-16
2023/01/11 06:07:43;;;;;;;1.92;0.73;;;17.30;72.70;;;;;;5069727;28;20525;-10
2023/01/11 06:10:09;;;;;;;2.63;0.70;;;17.30;72.80;;;;;;5066357;28;20040;-9
2023/01/11 06:12:34;;;;;;;1.15;0.90;;;17.40;72.60;;;;;;5068299;28;20036;-9
2023/01/11 06:15:00;;;;;;;0.90;0.60;;;17.30;72.50;;;;;;5067441;28;20063;-10
2023/01/11 06:17:26;;;;;;;4.68;1.10;;;17.20;72.70;;;;;;5064536;28;20039;-9
2023/01/11 06:19:51;;;;;;;1.40;1.10;;;17.40;72.60;;;;;;5063797;28;20051;-9
2023/01/11 06:22:17;;;;;;;1.67;1.17;;;17.50;72.60;;;;;;5066013;28;20029;-10
2023/01/11 06:24:42;;;;;;;1.75;1.20;;;17.50;72.70;;;;;;5068146;28;20123;-18
2023/01/11 06:27:08;;;;;;;2.28;1.17;;;17.50;72.90;;;;;;5066093;28;20401;-9
2023/01/11 06:29:34;;;;;;;3.75;1.40;;;17.50;72.70;;;;;;5064659;28;20200;-9
2023/01/11 06:31:59;;;;;;;2.22;0.98;;;17.40;73.30;;;;;;5066260;28;20102;-13
2023/01/11 06:34:25;;;;;;;2.40;1.30;;;17.40;73.30;;;;;;5065584;28;20521;-10
2023/01/11 06:36:50;;;;;;;5.57;2.25;;;17.40;73.40;;;;;;5066551;28;20047;-9
2023/01/11 06:39:16;;;;;;;5.13;2.92;;;17.40;73.40;;;;;;5066974;28;20540;-9
2023/01/11 06:41:42;;;;;;;4.70;3.97;;;17.40;73.30;;;;;;5064657;28;20060;-9
2023/01/11 06:44:07;;;;;;;9.52;4.90;;;17.40;73.10;;;;;;5062257;28;20041;-9
2023/01/11 06:46:33;;;;;;;5.75;5.22;;;17.40;73.00;;;;;;5052777;28;20044;-10
2023/01/11 06:49:00;;;;;;;5.65;4.68;;;17.40;72.90;;;;;;5055993;28;20040;-9
2023/01/11 06:51:25;;;;;;;9.13;5.13;;;17.40;73.00;;;;;;5045822;28;20029;-14
2023/01/11 06:53:51;;;;;;;6.97;5.55;;;17.40;72.70;;;;;;5055364;28;20463;-10
2023/01/11 06:56:17;;;;;;;6.03;5.03;;;17.50;72.70;;;;;;5050692;28;20048;-10
2023/01/11 06:58:43;;;;;;;5.22;4.78;;;17.50;72.60;;;;;;5051841;28;20175;-10
2023/01/11 07:01:09;;;;;;;6.90;4.82;;;17.40;72.60;;;;;;5045611;28;20486;-15
2023/01/11 07:03:34;;;;;;;4.90;4.47;;;17.50;72.40;;;;;;5046174;28;20053;-13
2023/01/11 07:06:00;;;;;;;5.00;4.38;;;17.40;72.50;;;;;;5051684;28;20096;-10
2023/01/11 07:08:26;;;;;;;6.32;4.35;;;17.30;72.90;;;;;;5033720;28;20095;-20
2023/01/11 07:10:51;;;;;;;5.47;4.95;;;17.40;72.70;;;;;;5052103;28;20541;-11
2023/01/11 07:13:17;;;;;;;6.32;5.72;;;17.30;72.70;;;;;;5055290;28;20094;-18
2023/01/11 07:15:43;;;;;;;11.38;8.93;;;17.30;72.80;;;;;;5063006;28;20090;-11
2023/01/11 07:18:10;;;;;;;11.05;9.73;;;17.30;73.60;;;;;;5051376;28;20048;-15
2023/01/11 07:20:35;;;;;;;13.18;11.38;;;17.40;72.70;;;;;;5014547;28;20037;-14
2023/01/11 07:23:01;;;;;;;15.98;12.48;;;17.40;72.70;;;;;;5048765;28;20498;-12
2023/01/11 07:25:27;;;;;;;13.88;11.25;;;17.40;72.70;;;;;;5047732;28;20497;-18
2023/01/11 07:28:00;;;;;;;14.85;12.05;;;17.40;72.60;;;;;;5052240;28;20048;-11
2023/01/11 07:30:26;;;;;;;17.23;12.43;;;17.40;72.70;;;;;;5048522;28;20115;-35
2023/01/11 07:32:52;;;;;;;14.52;11.75;;;17.40;72.50;;;;;;5051650;28;20039;-10
2023/01/11 07:35:18;;;;;;;16.80;13.52;;;17.40;72.30;;;;;;5047922;28;20132;-12
2023/01/11 07:37:44;;;;;;;15.98;12.40;;;17.50;72.00;;;;;;5043068;28;20076;-11
2023/01/11 07:40:12;;;;;;;17.08;11.93;;;17.50;71.90;;;;;;5048834;28;20044;-18
2023/01/11 07:45:22;;;;;;;16.08;12.65;;;17.50;71.70;;;;;;5051228;28;20106;-12
2023/01/11 07:47:51;;;;;;;17.38;12.38;;;17.50;71.70;;;;;;5047600;28;20052;-19
2023/01/11 07:50:16;;;;;;;17.35;12.88;;;17.50;71.70;;;;;;5043418;28;20099;-10
2023/01/11 07:52:47;;;;;;;15.77;11.88;;;17.60;71.70;;;;;;5056565;28;20040;-11
2023/01/11 07:55:13;;;;;;;16.95;12.35;;;17.70;71.10;;;;;;5040373;28;20037;-18
2023/01/11 07:57:38;;;;;;;13.15;11.65;;;17.80;70.80;;;;;;5047206;28;20048;-21
2023/01/11 08:00:04;;;;;;;12.35;10.73;;;17.80;70.60;;;;;;5046960;28;20064;-12
2023/01/11 08:02:30;;;;;;;14.80;11.90;;;17.80;70.90;;;;;;5042971;28;20045;-17
2023/01/11 08:04:57;;;;;;;15.65;11.00;;;17.90;70.80;;;;;;5050475;28;20437;-11
2023/01/11 08:07:22;;;;;;;12.07;10.43;;;17.90;71.20;;;;;;5054362;28;20101;-14
2023/01/11 08:09:48;;;;;;;14.15;10.73;;;18.00;71.00;;;;;;5053377;28;20053;-18
2023/01/11 08:14:57;;;;;;;12.43;9.10;;;17.70;71.70;;;;;;5056652;28;20055;-20
2023/01/11 08:17:23;;;;;;;11.60;8.90;;;17.70;71.60;;;;;;5051460;28;20036;-11
2023/01/11 08:19:49;;;;;;;13.60;9.20;;;17.80;71.30;;;;;;5045411;28;20072;-24
2023/01/11 08:22:16;;;;;;;10.55;9.38;;;17.70;71.70;;;;;;5053812;28;20048;-13
2023/01/11 08:24:41;;;;;;;10.45;8.80;;;17.80;71.40;;;;;;5052516;28;20043;-9
2023/01/11 08:27:07;;;;;;;11.20;8.82;;;17.60;71.70;;;;;;5051819;28;20049;-20
2023/01/11 08:29:33;;;;;;;9.30;8.40;;;17.70;71.60;;;;;;5051083;28;20582;-13
2023/01/11 08:31:59;;;;;;;12.55;9.25;;;17.70;71.70;;;;;;5051688;28;20489;-10
2023/01/11 08:34:26;;;;;;;10.45;7.15;;;17.70;71.60;;;;;;5047937;28;20052;-20
2023/01/11 08:36:52;;;;;;;12.80;8.57;;;17.70;71.70;;;;;;5054720;28;20052;-14
2023/01/11 08:39:17;;;;;;;10.20;7.75;;;17.60;71.70;;;;;;5053863;28;20822;-10
2023/01/11 08:41:43;;;;;;;9.57;7.50;;;17.60;71.90;;;;;;5048036;28;20452;-10
2023/01/11 08:44:09;;;;;;;9.93;8.25;;;17.60;71.90;;;;;;5008344;28;1164076;-12
2023/01/11 08:46:36;;;;;;;10.50;7.38;;;17.60;72.00;;;;;;5056136;28;20040;-14
2023/01/11 08:49:02;;;;;;;7.95;7.15;;;17.60;72.10;;;;;;5053265;28;20036;-10
2023/01/11 08:51:28;;;;;;;7.82;7.00;;;17.60;71.60;;;;;;5055774;28;20541;-9
2023/01/11 08:53:53;;;;;;;7.40;6.60;;;17.60;71.70;;;;;;5054518;28;20049;-12
2023/01/11 08:56:19;;;;;;;7.35;6.63;;;17.60;72.50;;;;;;5053806;28;20092;-10
2023/01/11 08:58:44;;;;;;;7.70;6.65;;;17.70;71.50;;;;;;5061240;28;20532;-10
2023/01/11 09:01:11;;;;;;;6.82;6.07;;;17.60;71.80;;;;;;5048056;28;20029;-9
2023/01/11 09:03:36;;;;;;;6.55;6.03;;;17.60;72.00;;;;;;5048421;28;20068;-9
2023/01/11 09:06:02;;;;;;;6.63;5.97;;;17.60;72.10;;;;;;5051333;28;20072;-10
2023/01/11 09:08:28;;;;;;;7.22;6.53;;;17.60;71.90;;;;;;5052716;28;20048;-13
2023/01/11 09:10:55;;;;;;;6.70;6.10;;;17.70;71.70;;;;;;5052147;28;21512;-10
2023/01/11 09:13:21;;;;;;;7.43;6.57;;;17.90;71.50;;;;;;5060374;28;20052;-10
2023/01/11 09:15:47;;;;;;;6.85;6.05;;;17.90;71.20;;;;;;5053188;28;20044;-9
2023/01/11 09:18:13;;;;;;;7.35;6.65;;;17.90;71.40;;;;;;5041551;28;20124;-10
2023/01/11 09:20:39;;;;;;;6.30;5.80;;;17.90;71.10;;;;;;5057080;28;20040;-10
2023/01/11 09:23:04;;;;;;;6.68;5.85;;;17.90;71.10;;;;;;5046362;28;20092;-10
2023/01/11 09:25:30;;;;;;;6.28;5.68;;;18.00;70.80;;;;;;5054637;28;20031;-10
2023/01/11 09:27:56;;;;;;;6.72;5.72;;;18.10;70.60;;;;;;5048234;28;20045;-9
2023/01/11 09:30:22;;;;;;;5.90;5.28;;;18.00;70.20;;;;;;5047074;28;20044;-10
2023/01/11 09:32:48;;;;;;;5.93;5.43;;;17.90;70.90;;;;;;5050727;28;20036;-10
2023/01/11 09:35:17;;;;;;;5.65;5.15;;;17.90;71.00;;;;;;5058470;28;20567;-10
2023/01/11 09:37:50;;;;;;;5.13;4.70;;;18.00;70.70;;;;;;5055117;28;20446;-10
2023/01/11 09:40:25;;;;;;;5.88;5.38;;;18.20;70.80;;;;;;5058578;28;20552;-10
2023/01/11 09:42:53;;;;;;;6.68;4.90;;;18.20;70.40;;;;;;5044210;28;20032;-21
2023/01/11 09:45:22;;;;;;;6.22;5.47;;;18.30;70.10;;;;;;5045396;28;20055;-10
2023/01/11 09:47:48;;;;;;;5.40;4.90;;;18.30;70.00;;;;;;5057846;28;20371;-10
2023/01/11 09:50:18;;;;;;;5.88;5.30;;;18.20;70.20;;;;;;5062537;28;20063;-9
2023/01/11 09:52:48;;;;;;;5.32;4.82;;;18.00;70.90;;;;;;5060371;28;20529;-9
2023/01/11 09:55:18;;;;;;;5.90;5.40;;;18.10;70.70;;;;;;5044692;28;20044;-10
2023/01/11 09:58:21;;;;;;;5.68;4.55;;;18.30;70.10;;;;;;5060147;28;20107;-16
2023/01/11 10:00:53;;;;;;;6.07;5.25;;;18.30;69.80;;;;;;5046887;28;20052;-10
2023/01/11 10:03:33;;;;;;;5.43;4.93;;;18.20;70.20;;;;;;5059425;28;20060;-13
2023/01/11 10:06:08;;;;;;;5.20;4.80;;;18.00;70.40;;;;;;5060345;28;20032;-10
2023/01/11 10:08:49;;;;;;;5.00;4.60;;;18.10;70.60;;;;;;5055762;28;20045;-17
2023/01/11 10:11:34;;;;;;;4.65;4.18;;;18.10;70.60;;;;;;5058053;28;20043;-10
2023/01/11 10:14:25;;;;;;;4.82;4.43;;;18.00;70.50;;;;;;5029596;28;20052;-10
2023/01/11 10:17:19;;;;;;;5.28;4.80;;;18.10;70.40;;;;;;5044552;28;20048;-12
2023/01/11 10:19:48;;;;;;;4.63;4.28;;;18.10;70.30;;;;;;5057481;28;20105;-10
2023/01/11 10:22:16;;;;;;;4.60;3.97;;;18.10;70.30;;;;;;5059332;28;20048;-10
2023/01/11 10:25:09;;;;;;;4.05;3.80;;;18.10;70.20;;;;;;5022734;28;20057;-12
2023/01/11 10:27:45;;;;;;;4.55;4.15;;;18.20;70.10;;;;;;5053447;28;20036;-10
2023/01/11 10:33:05;;;;;;;4.40;4.00;;;18.30;69.90;;;;;;5046161;28;20043;-12
2023/01/11 10:36:20;;;;;;;4.03;3.50;;;18.20;70.00;;;;;;5041370;28;20445;-20
2023/01/11 10:39:41;;;;;;;4.18;3.88;;;18.20;70.00;;;;;;5044911;28;20048;-9
2023/01/11 10:42:11;;;;;;;3.97;3.60;;;18.20;70.00;;;;;;5055772;28;20033;-10
2023/01/11 10:44:53;;;;;;;4.20;3.90;;;18.30;70.00;;;;;;5056158;28;20051;-16
2023/01/11 10:47:21;;;;;;;4.20;3.90;;;18.20;69.90;;;;;;5061600;28;20133;-25
2023/01/11 10:50:01;;;;;;;4.22;3.92;;;18.20;69.80;;;;;;5056394;28;20040;-10
2023/01/11 10:52:32;;;;;;;4.22;3.72;;;18.30;69.80;;;;;;5033710;28;20603;-10
2023/01/11 10:55:01;;;;;;;4.30;4.00;;;18.20;69.80;;;;;;5045124;28;20133;-13
2023/01/11 10:57:39;;;;;;;3.33;3.13;;;18.30;69.90;;;;;;5047847;28;20043;-10
2023/01/11 11:00:34;;;;;;;3.55;3.25;;;18.30;69.80;;;;;;5049569;28;20095;-10
2023/01/11 11:03:05;;;;;;;;;;;18.30;69.70;;;;;;5027114;28;20401;-13
2023/01/11 11:05:59;;;;;;;3.40;3.10;;;18.30;69.80;;;;;;5053114;28;19939;-18
2023/01/11 11:08:47;;;;;;;3.70;3.35;;;18.30;69.80;;;;;;5049194;28;20032;-12
2023/01/11 11:11:51;;;;;;;4.20;3.47;;;18.30;69.80;;;;;;5059297;28;20040;-10
2023/01/11 11:14:28;;;;;;;3.92;3.60;;;18.30;69.80;;;;;;5037195;28;20120;-16
2023/01/11 11:17:13;;;;;;;3.75;3.53;;;18.30;69.90;;;;;;5021356;28;20072;-10
2023/01/11 11:19:38;;;;;;;3.72;3.20;;;18.30;70.00;;;;;;5021577;28;20045;-10
2023/01/11 11:22:04;;;;;;;3.92;3.63;;;18.40;70.00;;;;;;5023304;28;20056;-17
2023/01/11 11:24:41;;;;;;;4.57;3.53;;;18.40;70.50;;;;;;5021410;28;20709;-11
2023/01/11 11:27:38;;;;;;;3.75;3.35;;;18.40;71.10;;;;;;5014817;28;20052;-11
2023/01/11 11:30:04;;;;;;;3.88;3.47;;;18.50;70.90;;;;;;4998832;28;20033;-10
2023/01/11 11:32:32;;;;;;;3.22;2.92;;;18.50;71.50;;;;;;5014260;28;20053;-10
2023/01/11 11:34:57;;;;;;;4.30;3.42;;;18.40;71.00;;;;;;5019637;28;20098;-15
2023/01/11 11:37:30;;;;;;;3.40;3.03;;;18.40;70.90;;;;;;5017211;28;20049;-14
2023/01/11 11:39:56;;;;;;;5.37;3.00;;;18.40;71.10;;;;;;5000110;28;20442;-10
2023/01/11 11:42:22;;;;;;;2.95;2.75;;;18.40;71.10;;;;;;5018948;28;20052;-10
2023/01/11 11:45:23;;;;;;;3.72;3.35;;;18.40;71.30;;;;;;5024862;28;20095;-10
2023/01/11 11:47:59;;;;;;;4.43;3.10;;;18.40;71.50;;;;;;4967651;28;20140;-10
2023/01/11 11:50:25;;;;;;;4.45;3.30;;;18.30;71.50;;;;;;4976452;28;20137;-13
2023/01/11 11:52:53;;;;;;;6.05;2.90;;;18.40;71.50;;;;;;4981413;28;20164;-11
2023/01/11 11:55:25;;;;;;;3.80;3.17;;;18.30;71.60;;;;;;4966041;28;20068;-10
2023/01/11 11:57:51;;;;;;;3.70;3.38;;;18.30;71.80;;;;;;4962534;28;20050;-10
2023/01/11 12:00:26;;;;;;;3.20;2.63;;;18.40;72.00;;;;;;4942167;28;20054;-16
2023/01/11 12:03:20;;;;;;;2.90;2.70;;;18.40;71.90;;;;;;4966414;28;20073;-10
2023/01/11 12:05:50;;;;;;;3.13;2.70;;;18.40;71.90;;;;;;4977064;28;20060;-10
2023/01/11 12:08:16;;;;;;;3.85;2.70;;;18.40;71.70;;;;;;4627843;28;10000517;-9
2023/01/11 12:10:47;;;;;;;2.83;2.35;;;18.40;71.70;;;;;;4981338;28;20053;-12
2023/01/11 12:13:33;;;;;;;3.75;2.53;;;18.40;71.70;;;;;;4968625;28;20081;-10
2023/01/11 12:16:02;;;;;;;3.08;2.63;;;18.40;71.50;;;;;;4968635;28;20050;-9
2023/01/11 12:18:40;;;;;;;3.15;2.50;;;18.40;71.40;;;;;;4984986;28;20069;-10
2023/01/11 12:21:29;;;;;;;3.85;2.40;;;18.50;71.30;;;;;;4991444;28;20052;-10
2023/01/11 12:24:16;;;;;;;2.63;2.30;;;18.40;71.20;;;;;;5034508;28;20052;-10
2023/01/11 12:27:06;;;;;;;3.15;2.40;;;18.50;71.20;;;;;;5034684;28;20818;-10
2023/01/11 12:29:35;;;;;;;3.55;2.53;;;18.40;71.20;;;;;;5019075;28;20262;-21
2023/01/11 12:32:39;;;;;;;2.42;2.22;;;18.40;71.20;;;;;;5035295;28;20052;-10
2023/01/11 12:35:40;;;;;;;2.67;2.28;;;18.40;71.20;;;;;;5032932;28;20710;-10
2023/01/11 12:38:19;;;;;;;4.68;2.47;;;18.50;71.00;;;;;;5023368;28;20056;-10
2023/01/11 12:41:42;;;;;;;6.28;2.60;;;18.50;71.10;;;;;;5020366;28;20056;-10
2023/01/11 12:44:38;;;;;;;2.58;2.28;;;18.50;71.10;;;;;;5032355;28;20053;-10
2023/01/11 12:47:33;;;;;;;2.75;2.20;;;18.40;71.00;;;;;;5015597;28;21936;-10
2023/01/11 12:50:13;;;;;;;2.92;2.25;;;18.50;70.90;;;;;;5031276;28;20107;-10
2023/01/11 12:53:06;;;;;;;5.85;1.92;;;18.40;70.90;;;;;;5029826;28;20127;-10
2023/01/11 12:55:53;;;;;;;2.50;2.13;;;18.50;70.90;;;;;;5028249;28;20152;-14
2023/01/11 12:58:34;;;;;;;2.17;1.98;;;18.50;70.70;;;;;;5015122;28;20182;-10
2023/01/11 13:01:37;;;;;;;2.53;2.30;;;18.40;71.50;;;;;;5014196;28;20080;-10
2023/01/11 13:04:20;;;;;;;2.17;1.90;;;18.50;70.80;;;;;;5030705;28;20044;-27
2023/01/11 13:07:07;;;;;;;2.05;1.90;;;18.50;70.80;;;;;;5047343;28;20049;-11
2023/01/11 13:09:40;;;;;;;2.33;2.00;;;18.50;70.80;;;;;;5064069;28;20044;-11
2023/01/11 13:12:32;;;;;;;2.92;2.20;;;18.40;70.70;;;;;;5068969;28;20052;-12
2023/01/11 13:15:27;;;;;;;3.00;2.35;;;18.40;70.70;;;;;;5064413;28;20438;-13
2023/01/11 13:17:55;;;;;;;;;;;18.40;70.60;;;;;;5053705;28;20509;-11
2023/01/11 13:20:23;;;;;;;2.83;2.08;;;18.50;70.50;;;;;;5061452;28;20003;-11
2023/01/11 13:23:17;;;;;;;2.60;2.33;;;18.50;70.40;;;;;;5072510;28;20063;-11
2023/01/11 13:25:44;;;;;;;4.32;1.83;;;18.50;70.20;;;;;;5028069;28;20045;-11
2023/01/11 13:28:19;;;;;;;2.60;2.00;;;18.50;70.20;;;;;;5076963;28;20040;-17
2023/01/11 13:30:45;;;;;;;1.95;1.73;;;18.50;70.20;;;;;;5055083;28;20045;-12
2023/01/11 13:33:15;;;;;;;2.03;1.85;;;18.50;70.20;;;;;;5059667;28;20528;-11